sensor_id;sensor_type;location;lat;lon;timestamp;P1;durP1;ratioP1;P2;durP2;ratioP2
47657;SDS011;33958;48.404;10.598;2022-09-03T00:02:04;4.10;;;1.58;;
47657;SDS011;33958;48.404;10.598;2022-09-03T00:10:21;3.03;;;1.73;;
47657;SDS011;33958;48.404;10.598;2022-09-03T00:12:56;2.65;;;1.60;;
47657;SDS011;33958;48.404;10.598;2022-09-03T00:15:28;6.88;;;1.88;;
47657;SDS011;33958;48.404;10.598;2022-09-03T00:18:04;6.10;;;2.00;;
47657;SDS011;33958;48.404;10.598;2022-09-03T00:20:40;4.97;;;1.88;;
47657;SDS011;33958;48.404;10.598;2022-09-03T00:23:20;4.38;;;1.70;;
47657;SDS011;33958;48.404;10.598;2022-09-03T00:25:51;3.83;;;1.73;;
47657;SDS011;33958;48.404;10.598;2022-09-03T00:28:33;3.05;;;1.75;;
47657;SDS011;33958;48.404;10.598;2022-09-03T00:31:17;4.80;;;1.67;;
47657;SDS011;33958;48.404;10.598;2022-09-03T00:33:46;4.00;;;1.50;;
47657;SDS011;33958;48.404;10.598;2022-09-03T00:36:21;4.75;;;2.10;;
47657;SDS011;33958;48.404;10.598;2022-09-03T00:38:53;3.70;;;1.98;;
47657;SDS011;33958;48.404;10.598;2022-09-03T00:46:59;4.90;;;1.90;;
47657;SDS011;33958;48.404;10.598;2022-09-03T00:58:14;6.57;;;1.90;;
47657;SDS011;33958;48.404;10.598;2022-09-03T01:00:51;3.97;;;1.92;;
47657;SDS011;33958;48.404;10.598;2022-09-03T01:03:40;5.32;;;1.90;;
47657;SDS011;33958;48.404;10.598;2022-09-03T01:06:37;4.32;;;1.90;;
47657;SDS011;33958;48.404;10.598;2022-09-03T01:09:20;5.95;;;1.85;;
47657;SDS011;33958;48.404;10.598;2022-09-03T01:38:11;3.92;;;1.90;;
47657;SDS011;33958;48.404;10.598;2022-09-03T01:43:53;2.47;;;1.55;;
47657;SDS011;33958;48.404;10.598;2022-09-03T01:46:25;3.22;;;1.77;;
47657;SDS011;33958;48.404;10.598;2022-09-03T01:49:05;3.90;;;1.83;;
47657;SDS011;33958;48.404;10.598;2022-09-03T01:51:36;3.65;;;1.70;;
47657;SDS011;33958;48.404;10.598;2022-09-03T02:02:02;2.58;;;1.65;;
47657;SDS011;33958;48.404;10.598;2022-09-03T02:07:40;2.75;;;1.23;;
47657;SDS011;33958;48.404;10.598;2022-09-03T02:10:10;2.53;;;1.33;;
47657;SDS011;33958;48.404;10.598;2022-09-03T02:12:43;3.05;;;1.67;;
47657;SDS011;33958;48.404;10.598;2022-09-03T02:15:15;4.32;;;1.65;;
47657;SDS011;33958;48.404;10.598;2022-09-03T02:17:46;4.47;;;2.00;;
47657;SDS011;33958;48.404;10.598;2022-09-03T02:20:16;4.88;;;2.10;;
47657;SDS011;33958;48.404;10.598;2022-09-03T02:22:46;3.25;;;1.70;;
47657;SDS011;33958;48.404;10.598;2022-09-03T02:25:15;3.53;;;1.92;;
47657;SDS011;33958;48.404;10.598;2022-09-03T02:27:43;4.60;;;1.70;;
47657;SDS011;33958;48.404;10.598;2022-09-03T02:30:11;2.83;;;1.67;;
47657;SDS011;33958;48.404;10.598;2022-09-03T02:32:38;6.45;;;1.90;;
47657;SDS011;33958;48.404;10.598;2022-09-03T02:35:06;5.75;;;1.77;;
47657;SDS011;33958;48.404;10.598;2022-09-03T02:37:33;3.40;;;2.05;;
47657;SDS011;33958;48.404;10.598;2022-09-03T02:40:00;3.60;;;1.83;;
47657;SDS011;33958;48.404;10.598;2022-09-03T02:42:31;3.38;;;2.00;;
47657;SDS011;33958;48.404;10.598;2022-09-03T02:45:12;3.17;;;2.00;;
47657;SDS011;33958;48.404;10.598;2022-09-03T02:47:48;3.53;;;1.98;;
47657;SDS011;33958;48.404;10.598;2022-09-03T02:50:18;3.55;;;1.90;;
47657;SDS011;33958;48.404;10.598;2022-09-03T02:52:45;4.72;;;1.98;;
47657;SDS011;33958;48.404;10.598;2022-09-03T02:55:14;5.15;;;2.22;;
47657;SDS011;33958;48.404;10.598;2022-09-03T02:57:41;4.75;;;2.17;;
47657;SDS011;33958;48.404;10.598;2022-09-03T03:00:08;3.67;;;1.90;;
47657;SDS011;33958;48.404;10.598;2022-09-03T03:02:35;3.28;;;1.77;;
47657;SDS011;33958;48.404;10.598;2022-09-03T03:05:03;7.10;;;2.08;;
47657;SDS011;33958;48.404;10.598;2022-09-03T03:07:31;4.43;;;1.90;;
47657;SDS011;33958;48.404;10.598;2022-09-03T03:10:02;4.30;;;1.75;;
47657;SDS011;33958;48.404;10.598;2022-09-03T03:12:29;3.78;;;1.90;;
47657;SDS011;33958;48.404;10.598;2022-09-03T03:14:56;5.43;;;1.85;;
47657;SDS011;33958;48.404;10.598;2022-09-03T03:17:23;3.63;;;1.83;;
47657;SDS011;33958;48.404;10.598;2022-09-03T03:19:51;4.15;;;2.00;;
47657;SDS011;33958;48.404;10.598;2022-09-03T03:22:18;3.60;;;1.98;;
47657;SDS011;33958;48.404;10.598;2022-09-03T03:24:45;3.30;;;1.80;;
47657;SDS011;33958;48.404;10.598;2022-09-03T03:27:12;3.95;;;1.90;;
47657;SDS011;33958;48.404;10.598;2022-09-03T03:29:40;3.47;;;1.83;;
47657;SDS011;33958;48.404;10.598;2022-09-03T03:32:07;4.55;;;2.28;;
47657;SDS011;33958;48.404;10.598;2022-09-03T03:34:34;3.03;;;1.77;;
47657;SDS011;33958;48.404;10.598;2022-09-03T03:37:00;4.93;;;2.28;;
47657;SDS011;33958;48.404;10.598;2022-09-03T03:39:27;2.88;;;1.50;;
47657;SDS011;33958;48.404;10.598;2022-09-03T03:41:54;4.30;;;1.88;;
47657;SDS011;33958;48.404;10.598;2022-09-03T03:44:21;2.33;;;1.58;;
47657;SDS011;33958;48.404;10.598;2022-09-03T03:46:48;3.55;;;1.83;;
47657;SDS011;33958;48.404;10.598;2022-09-03T03:49:15;4.07;;;2.03;;
47657;SDS011;33958;48.404;10.598;2022-09-03T03:51:42;4.18;;;1.90;;
47657;SDS011;33958;48.404;10.598;2022-09-03T03:54:09;3.30;;;1.60;;
47657;SDS011;33958;48.404;10.598;2022-09-03T03:56:39;5.32;;;1.80;;
47657;SDS011;33958;48.404;10.598;2022-09-03T03:59:06;2.38;;;1.42;;
47657;SDS011;33958;48.404;10.598;2022-09-03T04:01:33;3.30;;;1.60;;
47657;SDS011;33958;48.404;10.598;2022-09-03T04:04:00;6.28;;;1.77;;
47657;SDS011;33958;48.404;10.598;2022-09-03T04:06:27;2.20;;;1.45;;
47657;SDS011;33958;48.404;10.598;2022-09-03T04:08:55;4.90;;;2.13;;
47657;SDS011;33958;48.404;10.598;2022-09-03T04:11:22;3.40;;;1.75;;
47657;SDS011;33958;48.404;10.598;2022-09-03T04:13:50;3.40;;;1.48;;
47657;SDS011;33958;48.404;10.598;2022-09-03T04:16:21;1.98;;;1.30;;
47657;SDS011;33958;48.404;10.598;2022-09-03T04:18:49;4.40;;;1.85;;
47657;SDS011;33958;48.404;10.598;2022-09-03T04:21:35;4.22;;;1.75;;
47657;SDS011;33958;48.404;10.598;2022-09-03T04:24:03;2.80;;;1.70;;
47657;SDS011;33958;48.404;10.598;2022-09-03T04:26:31;8.18;;;1.95;;
47657;SDS011;33958;48.404;10.598;2022-09-03T04:28:59;3.78;;;1.95;;
47657;SDS011;33958;48.404;10.598;2022-09-03T04:31:29;5.20;;;1.98;;
47657;SDS011;33958;48.404;10.598;2022-09-03T04:33:57;5.25;;;2.08;;
47657;SDS011;33958;48.404;10.598;2022-09-03T04:36:25;3.40;;;1.83;;
47657;SDS011;33958;48.404;10.598;2022-09-03T04:38:54;5.57;;;2.17;;
47657;SDS011;33958;48.404;10.598;2022-09-03T04:41:24;6.30;;;2.50;;
47657;SDS011;33958;48.404;10.598;2022-09-03T04:43:53;4.40;;;2.17;;
47657;SDS011;33958;48.404;10.598;2022-09-03T04:46:24;3.83;;;2.15;;
47657;SDS011;33958;48.404;10.598;2022-09-03T04:48:59;6.43;;;2.20;;
47657;SDS011;33958;48.404;10.598;2022-09-03T04:51:27;5.82;;;2.42;;
47657;SDS011;33958;48.404;10.598;2022-09-03T04:53:57;9.00;;;2.60;;
47657;SDS011;33958;48.404;10.598;2022-09-03T04:56:28;4.32;;;2.63;;
47657;SDS011;33958;48.404;10.598;2022-09-03T04:59:06;4.07;;;2.03;;
47657;SDS011;33958;48.404;10.598;2022-09-03T05:01:35;4.80;;;2.45;;
47657;SDS011;33958;48.404;10.598;2022-09-03T05:04:05;4.95;;;2.45;;
47657;SDS011;33958;48.404;10.598;2022-09-03T05:06:32;6.35;;;2.72;;
47657;SDS011;33958;48.404;10.598;2022-09-03T05:09:01;8.50;;;3.00;;
47657;SDS011;33958;48.404;10.598;2022-09-03T05:11:28;5.00;;;2.70;;
47657;SDS011;33958;48.404;10.598;2022-09-03T05:13:57;6.03;;;2.60;;
47657;SDS011;33958;48.404;10.598;2022-09-03T05:16:25;5.00;;;2.65;;
47657;SDS011;33958;48.404;10.598;2022-09-03T05:18:54;10.60;;;2.97;;
47657;SDS011;33958;48.404;10.598;2022-09-03T05:21:22;7.57;;;2.70;;
47657;SDS011;33958;48.404;10.598;2022-09-03T05:23:50;4.80;;;2.50;;
47657;SDS011;33958;48.404;10.598;2022-09-03T05:26:18;4.75;;;2.60;;
47657;SDS011;33958;48.404;10.598;2022-09-03T05:31:18;4.32;;;2.20;;
47657;SDS011;33958;48.404;10.598;2022-09-03T05:33:47;4.85;;;2.58;;
47657;SDS011;33958;48.404;10.598;2022-09-03T05:36:17;6.10;;;2.50;;
47657;SDS011;33958;48.404;10.598;2022-09-03T05:38:45;6.30;;;2.70;;
47657;SDS011;33958;48.404;10.598;2022-09-03T05:41:15;5.18;;;2.97;;
47657;SDS011;33958;48.404;10.598;2022-09-03T05:43:44;5.13;;;2.80;;
47657;SDS011;33958;48.404;10.598;2022-09-03T05:46:17;3.50;;;2.28;;
47657;SDS011;33958;48.404;10.598;2022-09-03T05:48:44;5.78;;;2.92;;
47657;SDS011;33958;48.404;10.598;2022-09-03T05:51:12;7.00;;;3.30;;
47657;SDS011;33958;48.404;10.598;2022-09-03T05:53:44;8.30;;;3.90;;
47657;SDS011;33958;48.404;10.598;2022-09-03T05:56:13;6.97;;;3.03;;
47657;SDS011;33958;48.404;10.598;2022-09-03T05:58:46;7.80;;;3.60;;
47657;SDS011;33958;48.404;10.598;2022-09-03T06:01:15;10.23;;;3.13;;
47657;SDS011;33958;48.404;10.598;2022-09-03T06:03:45;8.05;;;3.35;;
47657;SDS011;33958;48.404;10.598;2022-09-03T06:06:13;10.32;;;3.60;;
47657;SDS011;33958;48.404;10.598;2022-09-03T06:08:41;14.07;;;3.50;;
47657;SDS011;33958;48.404;10.598;2022-09-03T06:11:10;9.85;;;4.00;;
47657;SDS011;33958;48.404;10.598;2022-09-03T06:13:38;5.38;;;3.13;;
47657;SDS011;33958;48.404;10.598;2022-09-03T06:16:05;7.07;;;3.30;;
47657;SDS011;33958;48.404;10.598;2022-09-03T06:18:33;6.68;;;3.47;;
47657;SDS011;33958;48.404;10.598;2022-09-03T06:21:01;11.20;;;3.88;;
47657;SDS011;33958;48.404;10.598;2022-09-03T06:23:30;6.47;;;3.47;;
47657;SDS011;33958;48.404;10.598;2022-09-03T06:26:01;8.05;;;3.70;;
47657;SDS011;33958;48.404;10.598;2022-09-03T06:28:31;9.20;;;3.90;;
47657;SDS011;33958;48.404;10.598;2022-09-03T06:31:00;8.93;;;4.50;;
47657;SDS011;33958;48.404;10.598;2022-09-03T06:33:28;11.80;;;4.47;;
47657;SDS011;33958;48.404;10.598;2022-09-03T06:35:57;7.22;;;4.10;;
47657;SDS011;33958;48.404;10.598;2022-09-03T06:38:26;8.02;;;4.10;;
47657;SDS011;33958;48.404;10.598;2022-09-03T06:41:01;6.90;;;3.83;;
47657;SDS011;33958;48.404;10.598;2022-09-03T06:43:39;8.63;;;4.70;;
47657;SDS011;33958;48.404;10.598;2022-09-03T06:46:08;8.05;;;4.45;;
47657;SDS011;33958;48.404;10.598;2022-09-03T06:48:40;15.05;;;5.05;;
47657;SDS011;33958;48.404;10.598;2022-09-03T06:51:12;8.63;;;4.68;;
47657;SDS011;33958;48.404;10.598;2022-09-03T06:53:42;9.13;;;4.63;;
47657;SDS011;33958;48.404;10.598;2022-09-03T06:56:11;8.23;;;4.60;;
47657;SDS011;33958;48.404;10.598;2022-09-03T06:58:52;6.45;;;3.92;;
47657;SDS011;33958;48.404;10.598;2022-09-03T07:01:21;8.82;;;4.35;;
47657;SDS011;33958;48.404;10.598;2022-09-03T07:03:55;6.88;;;4.45;;
47657;SDS011;33958;48.404;10.598;2022-09-03T07:06:24;27.75;;;5.45;;
47657;SDS011;33958;48.404;10.598;2022-09-03T07:08:53;10.98;;;4.78;;
47657;SDS011;33958;48.404;10.598;2022-09-03T07:11:21;10.20;;;4.88;;
47657;SDS011;33958;48.404;10.598;2022-09-03T07:13:51;8.45;;;4.47;;
47657;SDS011;33958;48.404;10.598;2022-09-03T07:16:23;10.13;;;4.22;;
47657;SDS011;33958;48.404;10.598;2022-09-03T07:18:52;7.75;;;4.97;;
47657;SDS011;33958;48.404;10.598;2022-09-03T07:21:22;8.05;;;4.00;;
47657;SDS011;33958;48.404;10.598;2022-09-03T07:23:53;7.05;;;4.50;;
47657;SDS011;33958;48.404;10.598;2022-09-03T07:26:22;6.47;;;3.45;;
47657;SDS011;33958;48.404;10.598;2022-09-03T07:28:55;6.68;;;3.83;;
47657;SDS011;33958;48.404;10.598;2022-09-03T07:31:24;7.35;;;3.90;;
47657;SDS011;33958;48.404;10.598;2022-09-03T07:33:57;6.97;;;3.58;;
47657;SDS011;33958;48.404;10.598;2022-09-03T07:36:26;6.65;;;4.00;;
47657;SDS011;33958;48.404;10.598;2022-09-03T07:39:00;7.80;;;4.40;;
47657;SDS011;33958;48.404;10.598;2022-09-03T07:41:29;7.15;;;4.03;;
47657;SDS011;33958;48.404;10.598;2022-09-03T07:43:58;8.63;;;3.25;;
47657;SDS011;33958;48.404;10.598;2022-09-03T07:46:34;6.97;;;3.33;;
47657;SDS011;33958;48.404;10.598;2022-09-03T07:49:03;8.23;;;2.97;;
47657;SDS011;33958;48.404;10.598;2022-09-03T07:51:35;5.60;;;3.53;;
47657;SDS011;33958;48.404;10.598;2022-09-03T07:54:04;5.55;;;3.28;;
47657;SDS011;33958;48.404;10.598;2022-09-03T07:59:02;7.70;;;3.38;;
47657;SDS011;33958;48.404;10.598;2022-09-03T08:01:30;6.88;;;3.08;;
47657;SDS011;33958;48.404;10.598;2022-09-03T08:03:58;6.13;;;3.40;;
47657;SDS011;33958;48.404;10.598;2022-09-03T08:06:27;6.47;;;3.50;;
47657;SDS011;33958;48.404;10.598;2022-09-03T08:08:56;6.18;;;3.40;;
47657;SDS011;33958;48.404;10.598;2022-09-03T08:11:31;6.10;;;2.80;;
47657;SDS011;33958;48.404;10.598;2022-09-03T08:14:02;6.07;;;2.50;;
47657;SDS011;33958;48.404;10.598;2022-09-03T08:16:33;5.22;;;3.03;;
47657;SDS011;33958;48.404;10.598;2022-09-03T08:19:03;4.53;;;2.90;;
47657;SDS011;33958;48.404;10.598;2022-09-03T08:21:30;7.32;;;3.33;;
47657;SDS011;33958;48.404;10.598;2022-09-03T08:23:57;6.93;;;3.00;;
47657;SDS011;33958;48.404;10.598;2022-09-03T08:26:38;5.15;;;3.00;;
47657;SDS011;33958;48.404;10.598;2022-09-03T08:29:12;4.22;;;2.70;;
47657;SDS011;33958;48.404;10.598;2022-09-03T08:31:40;5.30;;;2.50;;
47657;SDS011;33958;48.404;10.598;2022-09-03T08:34:07;9.75;;;3.42;;
47657;SDS011;33958;48.404;10.598;2022-09-03T08:36:34;5.05;;;2.75;;
47657;SDS011;33958;48.404;10.598;2022-09-03T08:41:42;4.65;;;2.60;;
47657;SDS011;33958;48.404;10.598;2022-09-03T08:53:02;5.10;;;3.45;;
47657;SDS011;33958;48.404;10.598;2022-09-03T08:55:36;6.27;;;2.70;;
47657;SDS011;33958;48.404;10.598;2022-09-03T08:58:14;7.35;;;2.97;;
47657;SDS011;33958;48.404;10.598;2022-09-03T09:00:57;6.15;;;2.75;;
47657;SDS011;33958;48.404;10.598;2022-09-03T09:03:50;5.30;;;2.63;;
47657;SDS011;33958;48.404;10.598;2022-09-03T09:06:42;5.15;;;2.85;;
47657;SDS011;33958;48.404;10.598;2022-09-03T09:11:49;5.10;;;2.97;;
47657;SDS011;33958;48.404;10.598;2022-09-03T09:14:59;4.72;;;2.45;;
47657;SDS011;33958;48.404;10.598;2022-09-03T09:17:49;5.57;;;2.92;;
47657;SDS011;33958;48.404;10.598;2022-09-03T09:20:30;6.78;;;2.80;;
47657;SDS011;33958;48.404;10.598;2022-09-03T09:23:14;5.70;;;2.88;;
47657;SDS011;33958;48.404;10.598;2022-09-03T09:25:47;4.43;;;2.63;;
47657;SDS011;33958;48.404;10.598;2022-09-03T09:28:17;6.72;;;2.70;;
47657;SDS011;33958;48.404;10.598;2022-09-03T09:30:50;6.75;;;3.30;;
47657;SDS011;33958;48.404;10.598;2022-09-03T09:33:20;5.15;;;2.97;;
47657;SDS011;33958;48.404;10.598;2022-09-03T09:35:48;4.93;;;2.80;;
47657;SDS011;33958;48.404;10.598;2022-09-03T09:38:26;6.43;;;2.85;;
47657;SDS011;33958;48.404;10.598;2022-09-03T09:41:06;3.60;;;2.20;;
47657;SDS011;33958;48.404;10.598;2022-09-03T09:43:34;3.88;;;2.45;;
47657;SDS011;33958;48.404;10.598;2022-09-03T09:46:20;5.47;;;3.40;;
47657;SDS011;33958;48.404;10.598;2022-09-03T09:48:50;5.05;;;2.78;;
47657;SDS011;33958;48.404;10.598;2022-09-03T09:51:26;4.93;;;3.03;;
47657;SDS011;33958;48.404;10.598;2022-09-03T09:56:26;5.63;;;3.35;;
47657;SDS011;33958;48.404;10.598;2022-09-03T09:59:06;6.43;;;3.10;;
47657;SDS011;33958;48.404;10.598;2022-09-03T10:01:35;6.30;;;3.25;;
47657;SDS011;33958;48.404;10.598;2022-09-03T10:04:12;5.05;;;3.25;;
47657;SDS011;33958;48.404;10.598;2022-09-03T10:06:54;5.00;;;2.97;;
47657;SDS011;33958;48.404;10.598;2022-09-03T10:09:25;4.43;;;2.88;;
47657;SDS011;33958;48.404;10.598;2022-09-03T10:20:43;4.65;;;2.50;;
47657;SDS011;33958;48.404;10.598;2022-09-03T10:23:19;3.78;;;2.28;;
47657;SDS011;33958;48.404;10.598;2022-09-03T10:25:53;4.38;;;2.63;;
47657;SDS011;33958;48.404;10.598;2022-09-03T10:28:34;3.85;;;2.20;;
47657;SDS011;33958;48.404;10.598;2022-09-03T10:31:11;3.35;;;2.05;;
47657;SDS011;33958;48.404;10.598;2022-09-03T10:33:55;5.82;;;2.50;;
47657;SDS011;33958;48.404;10.598;2022-09-03T10:36:30;4.20;;;2.30;;
47657;SDS011;33958;48.404;10.598;2022-09-03T10:39:09;3.42;;;2.30;;
47657;SDS011;33958;48.404;10.598;2022-09-03T10:42:02;2.63;;;1.70;;
47657;SDS011;33958;48.404;10.598;2022-09-03T10:50:16;3.38;;;1.60;;
47657;SDS011;33958;48.404;10.598;2022-09-03T10:55:49;1.98;;;1.25;;
47657;SDS011;33958;48.404;10.598;2022-09-03T11:04:21;2.25;;;1.20;;
47657;SDS011;33958;48.404;10.598;2022-09-03T11:07:11;2.97;;;1.17;;
47657;SDS011;33958;48.404;10.598;2022-09-03T11:13:23;1.45;;;1.10;;
47657;SDS011;33958;48.404;10.598;2022-09-03T11:15:45;1.92;;;1.00;;
47657;SDS011;33958;48.404;10.598;2022-09-03T11:20:47;2.28;;;1.27;;
47657;SDS011;33958;48.404;10.598;2022-09-03T11:23:16;1.40;;;0.90;;
47657;SDS011;33958;48.404;10.598;2022-09-03T11:25:47;1.70;;;0.90;;
47657;SDS011;33958;48.404;10.598;2022-09-03T11:31:31;2.40;;;1.00;;
47657;SDS011;33958;48.404;10.598;2022-09-03T11:34:07;1.48;;;0.88;;
47657;SDS011;33958;48.404;10.598;2022-09-03T11:36:48;1.02;;;0.90;;
47657;SDS011;33958;48.404;10.598;2022-09-03T11:39:19;1.92;;;0.93;;
47657;SDS011;33958;48.404;10.598;2022-09-03T11:41:59;1.98;;;1.00;;
47657;SDS011;33958;48.404;10.598;2022-09-03T11:44:38;1.83;;;1.13;;
47657;SDS011;33958;48.404;10.598;2022-09-03T11:47:24;1.40;;;0.90;;
47657;SDS011;33958;48.404;10.598;2022-09-03T12:01:00;1.02;;;0.82;;
47657;SDS011;33958;48.404;10.598;2022-09-03T12:03:40;1.45;;;0.93;;
47657;SDS011;33958;48.404;10.598;2022-09-03T12:12:17;2.08;;;1.20;;
47657;SDS011;33958;48.404;10.598;2022-09-03T12:18:52;2.63;;;1.20;;
47657;SDS011;33958;48.404;10.598;2022-09-03T12:23:34;2.83;;;0.90;;
47657;SDS011;33958;48.404;10.598;2022-09-03T12:26:12;1.25;;;1.00;;
47657;SDS011;33958;48.404;10.598;2022-09-03T12:28:42;2.40;;;1.00;;
47657;SDS011;33958;48.404;10.598;2022-09-03T12:31:23;3.78;;;1.23;;
47657;SDS011;33958;48.404;10.598;2022-09-03T12:33:58;3.65;;;1.35;;
47657;SDS011;33958;48.404;10.598;2022-09-03T12:36:37;1.40;;;1.10;;
47657;SDS011;33958;48.404;10.598;2022-09-03T12:39:11;2.10;;;1.23;;
47657;SDS011;33958;48.404;10.598;2022-09-03T12:44:30;1.87;;;1.40;;
47657;SDS011;33958;48.404;10.598;2022-09-03T12:47:10;1.98;;;1.00;;
47657;SDS011;33958;48.404;10.598;2022-09-03T12:50:03;1.50;;;1.10;;
47657;SDS011;33958;48.404;10.598;2022-09-03T12:52:34;1.85;;;1.23;;
47657;SDS011;33958;48.404;10.598;2022-09-03T12:55:27;2.65;;;1.25;;
47657;SDS011;33958;48.404;10.598;2022-09-03T13:00:56;4.13;;;0.90;;
47657;SDS011;33958;48.404;10.598;2022-09-03T13:06:17;0.00;;;0.00;;
47657;SDS011;33958;48.404;10.598;2022-09-03T13:08:52;0.47;;;0.38;;
47657;SDS011;33958;48.404;10.598;2022-09-03T13:11:23;0.00;;;0.00;;
47657;SDS011;33958;48.404;10.598;2022-09-03T13:13:58;0.32;;;0.13;;
47657;SDS011;33958;48.404;10.598;2022-09-03T13:31:00;0.00;;;0.00;;
47657;SDS011;33958;48.404;10.598;2022-09-03T13:33:22;0.00;;;0.00;;
47657;SDS011;33958;48.404;10.598;2022-09-03T13:36:02;0.00;;;0.00;;
47657;SDS011;33958;48.404;10.598;2022-09-03T13:38:44;0.00;;;0.00;;
47657;SDS011;33958;48.404;10.598;2022-09-03T13:44:17;0.00;;;0.00;;
47657;SDS011;33958;48.404;10.598;2022-09-03T13:46:51;0.00;;;0.00;;
47657;SDS011;33958;48.404;10.598;2022-09-03T13:49:33;0.00;;;0.00;;
47657;SDS011;33958;48.404;10.598;2022-09-03T13:55:47;0.00;;;0.00;;
47657;SDS011;33958;48.404;10.598;2022-09-03T14:06:17;0.00;;;0.00;;
47657;SDS011;33958;48.404;10.598;2022-09-03T14:09:14;0.10;;;0.10;;
47657;SDS011;33958;48.404;10.598;2022-09-03T14:11:58;0.00;;;0.00;;
47657;SDS011;33958;48.404;10.598;2022-09-03T14:22:21;0.10;;;0.10;;
47657;SDS011;33958;48.404;10.598;2022-09-03T14:24:53;0.32;;;0.32;;
47657;SDS011;33958;48.404;10.598;2022-09-03T14:27:25;0.28;;;0.20;;
47657;SDS011;33958;48.404;10.598;2022-09-03T14:30:39;0.00;;;0.00;;
47657;SDS011;33958;48.404;10.598;2022-09-03T14:35:38;0.47;;;0.28;;
47657;SDS011;33958;48.404;10.598;2022-09-03T14:46:37;0.20;;;0.15;;
47657;SDS011;33958;48.404;10.598;2022-09-03T15:00:54;0.10;;;0.10;;
47657;SDS011;33958;48.404;10.598;2022-09-03T15:04:03;0.08;;;0.08;;
47657;SDS011;33958;48.404;10.598;2022-09-03T15:14:40;0.00;;;0.00;;
47657;SDS011;33958;48.404;10.598;2022-09-03T15:26:03;0.00;;;0.00;;
47657;SDS011;33958;48.404;10.598;2022-09-03T15:31:52;0.00;;;0.00;;
47657;SDS011;33958;48.404;10.598;2022-09-03T15:34:39;0.00;;;0.00;;
47657;SDS011;33958;48.404;10.598;2022-09-03T15:37:33;0.22;;;0.13;;
47657;SDS011;33958;48.404;10.598;2022-09-03T15:43:24;0.20;;;0.15;;
47657;SDS011;33958;48.404;10.598;2022-09-03T15:45:58;0.10;;;0.10;;
47657;SDS011;33958;48.404;10.598;2022-09-03T15:53:36;0.20;;;0.15;;
47657;SDS011;33958;48.404;10.598;2022-09-03T15:56:18;0.10;;;0.10;;
47657;SDS011;33958;48.404;10.598;2022-09-03T15:59:05;0.00;;;0.00;;
47657;SDS011;33958;48.404;10.598;2022-09-03T16:01:46;0.00;;;0.00;;
47657;SDS011;33958;48.404;10.598;2022-09-03T16:07:32;0.10;;;0.10;;
47657;SDS011;33958;48.404;10.598;2022-09-03T16:10:25;0.03;;;0.03;;
47657;SDS011;33958;48.404;10.598;2022-09-03T16:13:35;0.20;;;0.20;;
47657;SDS011;33958;48.404;10.598;2022-09-03T16:16:12;0.10;;;0.10;;
47657;SDS011;33958;48.404;10.598;2022-09-03T16:21:37;0.00;;;0.00;;
47657;SDS011;33958;48.404;10.598;2022-09-03T16:27:29;0.10;;;0.10;;
47657;SDS011;33958;48.404;10.598;2022-09-03T16:30:06;0.05;;;0.05;;
47657;SDS011;33958;48.404;10.598;2022-09-03T16:43:45;0.20;;;0.17;;
47657;SDS011;33958;48.404;10.598;2022-09-03T16:46:35;0.00;;;0.00;;
47657;SDS011;33958;48.404;10.598;2022-09-03T16:55:21;2.35;;;0.80;;
47657;SDS011;33958;48.404;10.598;2022-09-03T16:58:01;1.48;;;0.90;;
47657;SDS011;33958;48.404;10.598;2022-09-03T17:00:45;2.22;;;0.88;;
47657;SDS011;33958;48.404;10.598;2022-09-03T17:07:25;2.80;;;0.90;;
47657;SDS011;33958;48.404;10.598;2022-09-03T17:12:27;2.45;;;0.70;;
47657;SDS011;33958;48.404;10.598;2022-09-03T17:21:20;3.05;;;0.63;;
47657;SDS011;33958;48.404;10.598;2022-09-03T17:27:09;0.95;;;0.65;;
47657;SDS011;33958;48.404;10.598;2022-09-03T17:38:26;5.50;;;1.23;;
47657;SDS011;33958;48.404;10.598;2022-09-03T17:52:38;1.98;;;1.00;;
47657;SDS011;33958;48.404;10.598;2022-09-03T18:00:41;1.88;;;1.00;;
47657;SDS011;33958;48.404;10.598;2022-09-03T18:03:18;3.22;;;1.23;;
47657;SDS011;33958;48.404;10.598;2022-09-03T18:05:56;3.70;;;1.20;;
47657;SDS011;33958;48.404;10.598;2022-09-03T18:08:40;1.90;;;0.95;;
47657;SDS011;33958;48.404;10.598;2022-09-03T18:11:10;3.85;;;1.35;;
47657;SDS011;33958;48.404;10.598;2022-09-03T18:16:26;2.72;;;0.98;;
47657;SDS011;33958;48.404;10.598;2022-09-03T18:21:56;2.15;;;1.10;;
47657;SDS011;33958;48.404;10.598;2022-09-03T18:24:45;3.35;;;1.60;;
47657;SDS011;33958;48.404;10.598;2022-09-03T18:27:48;3.17;;;1.10;;
47657;SDS011;33958;48.404;10.598;2022-09-03T18:30:40;2.83;;;1.10;;
47657;SDS011;33958;48.404;10.598;2022-09-03T18:33:26;2.35;;;1.08;;
47657;SDS011;33958;48.404;10.598;2022-09-03T18:36:11;2.30;;;1.20;;
47657;SDS011;33958;48.404;10.598;2022-09-03T18:39:40;2.22;;;1.17;;
47657;SDS011;33958;48.404;10.598;2022-09-03T18:51:44;3.63;;;1.40;;
47657;SDS011;33958;48.404;10.598;2022-09-03T19:04:29;6.20;;;1.35;;
47657;SDS011;33958;48.404;10.598;2022-09-03T19:14:03;3.28;;;1.40;;
47657;SDS011;33958;48.404;10.598;2022-09-03T19:22:45;4.30;;;1.80;;
47657;SDS011;33958;48.404;10.598;2022-09-03T19:25:31;3.72;;;1.80;;
47657;SDS011;33958;48.404;10.598;2022-09-03T19:28:17;5.25;;;1.70;;
47657;SDS011;33958;48.404;10.598;2022-09-03T19:31:29;4.60;;;1.30;;
47657;SDS011;33958;48.404;10.598;2022-09-03T19:37:49;3.58;;;1.40;;
47657;SDS011;33958;48.404;10.598;2022-09-03T19:44:26;3.60;;;1.60;;
47657;SDS011;33958;48.404;10.598;2022-09-03T19:48:10;4.07;;;1.67;;
47657;SDS011;33958;48.404;10.598;2022-09-03T19:50:39;3.17;;;1.42;;
47657;SDS011;33958;48.404;10.598;2022-09-03T19:53:28;3.53;;;1.83;;
47657;SDS011;33958;48.404;10.598;2022-09-03T19:56:21;4.35;;;1.67;;
47657;SDS011;33958;48.404;10.598;2022-09-03T19:59:12;3.10;;;1.40;;
47657;SDS011;33958;48.404;10.598;2022-09-03T20:02:04;3.55;;;1.15;;
47657;SDS011;33958;48.404;10.598;2022-09-03T20:04:51;3.33;;;1.52;;
47657;SDS011;33958;48.404;10.598;2022-09-03T20:07:41;2.03;;;0.95;;
47657;SDS011;33958;48.404;10.598;2022-09-03T20:10:28;4.47;;;1.15;;
47657;SDS011;33958;48.404;10.598;2022-09-03T20:13:02;2.03;;;1.00;;
47657;SDS011;33958;48.404;10.598;2022-09-03T20:18:14;4.13;;;1.30;;
47657;SDS011;33958;48.404;10.598;2022-09-03T20:29:23;4.55;;;1.48;;
47657;SDS011;33958;48.404;10.598;2022-09-03T20:32:15;13.98;;;2.63;;
47657;SDS011;33958;48.404;10.598;2022-09-03T20:43:30;33.75;;;3.45;;
47657;SDS011;33958;48.404;10.598;2022-09-03T20:51:19;38.47;;;2.47;;
47657;SDS011;33958;48.404;10.598;2022-09-03T20:59:47;21.27;;;2.55;;
47657;SDS011;33958;48.404;10.598;2022-09-03T21:05:16;12.23;;;2.80;;
47657;SDS011;33958;48.404;10.598;2022-09-03T21:23:37;24.38;;;2.35;;
47657;SDS011;33958;48.404;10.598;2022-09-03T21:26:18;10.73;;;2.20;;
47657;SDS011;33958;48.404;10.598;2022-09-03T21:28:58;15.35;;;2.60;;
47657;SDS011;33958;48.404;10.598;2022-09-03T21:31:34;15.82;;;3.80;;
47657;SDS011;33958;48.404;10.598;2022-09-03T21:34:07;12.10;;;2.47;;
47657;SDS011;33958;48.404;10.598;2022-09-03T21:36:40;19.05;;;3.35;;
47657;SDS011;33958;48.404;10.598;2022-09-03T21:39:09;4.90;;;1.58;;
47657;SDS011;33958;48.404;10.598;2022-09-03T21:41:43;8.02;;;1.80;;
47657;SDS011;33958;48.404;10.598;2022-09-03T21:44:41;12.32;;;2.17;;
47657;SDS011;33958;48.404;10.598;2022-09-03T21:52:30;19.48;;;2.15;;
47657;SDS011;33958;48.404;10.598;2022-09-03T21:55:17;23.75;;;1.92;;
47657;SDS011;33958;48.404;10.598;2022-09-03T21:58:06;27.98;;;2.30;;
47657;SDS011;33958;48.404;10.598;2022-09-03T22:00:52;19.80;;;1.90;;
47657;SDS011;33958;48.404;10.598;2022-09-03T22:03:24;18.17;;;2.20;;